Time;durP1;ratioP1;P1;durP2;ratioP2;P2;SDS_P1;SDS_P2;PMS_P1;PMS_P2;Temp;Humidity;BMP_temperature;BMP_pressure;BME280_temperature;BME280_humidity;BME280_pressure;Samples;Min_cycle;Max_cycle;Signal;HPM_P1;HPM_P2
2023/08/23 00:02:04;;;;;;;2.00;0.30;;;;;;;15.37;71.67;101254.72;5055962;28;20060;-71
2023/08/23 00:04:34;;;;;;;5.57;0.22;;;;;;;15.34;71.67;101258.34;5048055;28;20048;-71
2023/08/23 00:07:03;;;;;;;1.13;0.40;;;;;;;15.34;71.68;101254.84;5050167;28;20044;-71
2023/08/23 00:09:30;;;;;;;3.33;0.43;;;;;;;15.32;71.74;101254.91;5053985;28;21983;-71
2023/08/23 00:11:57;;;;;;;2.38;0.68;;;;;;;15.30;71.73;101259.34;5049281;28;20048;-71
2023/08/23 00:14:25;;;;;;;4.25;0.47;;;;;;;15.28;71.77;101247.97;5052811;28;20045;-71
2023/08/23 00:16:52;;;;;;;0.68;0.30;;;;;;;15.26;71.79;101253.31;5049113;28;20107;-71
2023/08/23 00:19:19;;;;;;;3.50;0.35;;;;;;;15.23;71.89;101256.03;5049916;28;20127;-71
2023/08/23 00:21:46;;;;;;;6.82;0.50;;;;;;;15.23;72.16;101257.81;5052137;28;20048;-72
2023/08/23 00:24:12;;;;;;;1.23;0.40;;;;;;;15.20;72.20;101258.75;5052593;28;20047;-72
2023/08/23 00:26:39;;;;;;;0.70;0.35;;;;;;;15.18;72.08;101260.56;5047888;28;20526;-72
2023/08/23 00:29:06;;;;;;;1.95;0.30;;;;;;;15.16;72.07;101261.53;5053911;28;20045;-72
2023/08/23 00:31:34;;;;;;;2.45;0.40;;;;;;;15.14;72.02;101258.94;5053570;28;20513;-76
2023/08/23 00:34:01;;;;;;;0.93;0.40;;;;;;;15.13;72.25;101256.34;5055151;28;20052;-76
2023/08/23 00:36:28;;;;;;;2.35;0.60;;;;;;;15.12;72.53;101265.16;5055519;28;20059;-76
2023/08/23 00:38:55;;;;;;;1.02;0.50;;;;;;;15.09;72.07;101254.72;5055176;28;20511;-77
2023/08/23 00:41:22;;;;;;;1.33;0.55;;;;;;;15.08;72.38;101256.47;5050024;28;20152;-77
2023/08/23 00:43:50;;;;;;;3.30;0.40;;;;;;;15.10;72.44;101269.59;5053152;28;21165;-76
2023/08/23 00:46:19;;;;;;;2.10;0.40;;;;;;;15.07;72.59;101263.50;5046885;28;20056;-76
2023/08/23 00:48:49;;;;;;;2.78;0.50;;;;;;;15.06;72.48;101261.78;5053712;28;20049;-77
2023/08/23 00:51:16;;;;;;;2.63;0.50;;;;;;;15.05;72.70;101260.09;5052235;28;20044;-76
2023/08/23 00:53:43;;;;;;;4.28;0.70;;;;;;;15.03;72.56;101259.25;5050548;28;20049;-76
2023/08/23 00:56:11;;;;;;;4.95;0.38;;;;;;;15.03;72.52;101266.28;5031645;28;20514;-78
2023/08/23 00:58:39;;;;;;;0.80;0.35;;;;;;;15.00;72.37;101254.09;5046527;28;20041;-77
2023/08/23 01:01:05;;;;;;;5.25;0.40;;;;;;;14.99;72.69;101254.97;5053762;28;20483;-77
2023/08/23 01:03:33;;;;;;;2.08;0.50;;;;;;;14.98;72.75;101255.91;5055365;28;20052;-76
2023/08/23 01:06:12;;;;;;;2.45;0.32;;;;;;;14.97;72.67;101250.66;5051135;28;20090;-75
2023/08/23 01:08:47;;;;;;;1.45;0.75;;;;;;;14.95;72.70;101250.72;5052488;28;20041;-76
2023/08/23 01:11:21;;;;;;;2.70;0.40;;;;;;;14.93;72.79;101247.25;5050255;28;20045;-76
2023/08/23 01:13:55;;;;;;;2.05;0.50;;;;;;;14.92;72.77;101253.44;5053959;28;20055;-76
2023/08/23 01:16:23;;;;;;;1.48;0.40;;;;;;;14.89;72.98;101248.28;5051593;28;20045;-77
2023/08/23 01:18:52;;;;;;;1.58;0.40;;;;;;;14.89;72.79;101255.31;5053086;28;20044;-76
2023/08/23 01:21:28;;;;;;;4.43;0.40;;;;;;;14.85;72.89;101249.25;5050989;28;20466;-76
2023/08/23 01:23:57;;;;;;;4.60;0.52;;;;;;;14.86;72.92;101253.63;5054144;28;20037;-76
2023/08/23 01:26:24;;;;;;;3.55;0.40;;;;;;;14.85;73.11;101247.47;5022798;28;20044;-78
2023/08/23 01:28:51;;;;;;;2.58;0.60;;;;;;;14.76;73.28;101239.84;5055833;28;20065;-76
2023/08/23 01:31:22;;;;;;;1.95;0.35;;;;;;;14.84;73.10;101252.78;5057376;28;20048;-72
2023/08/23 01:33:53;;;;;;;4.53;0.40;;;;;;;14.83;73.27;101259.84;5050771;28;20045;-72
2023/08/23 01:36:26;;;;;;;2.58;0.40;;;;;;;14.82;73.07;101262.50;5051738;28;20048;-72
2023/08/23 01:38:53;;;;;;;2.75;0.40;;;;;;;14.82;73.25;101270.38;5053146;28;20053;-73
2023/08/23 01:41:22;;;;;;;2.15;0.35;;;;;;;14.81;73.25;101266.91;5055052;28;20052;-70
2023/08/23 01:43:49;;;;;;;1.38;0.50;;;;;;;14.81;73.41;101266.03;5051058;28;20049;-70
2023/08/23 01:46:16;;;;;;;3.22;0.50;;;;;;;14.78;73.36;101264.34;5048517;28;20049;-70
2023/08/23 01:48:43;;;;;;;3.13;0.50;;;;;;;14.78;73.34;101261.72;5050262;28;20045;-70
2023/08/23 01:51:10;;;;;;;3.22;0.90;;;;;;;14.78;73.36;101266.13;5055821;28;20052;-70
2023/08/23 01:53:37;;;;;;;6.40;0.57;;;;;;;14.75;73.25;101258.31;5049318;28;20044;-70
2023/08/23 01:56:04;;;;;;;2.35;0.60;;;;;;;14.76;73.47;101260.03;5045605;28;20447;-70
2023/08/23 01:58:32;;;;;;;3.95;0.40;;;;;;;14.75;73.41;101258.31;5055507;28;20049;-70
2023/08/23 02:00:59;;;;;;;1.05;0.77;;;;;;;14.75;73.49;101264.44;5053516;28;20048;-70
2023/08/23 02:03:26;;;;;;;1.00;0.50;;;;;;;14.74;73.41;101253.94;5056762;28;20468;-70
2023/08/23 02:05:55;;;;;;;0.90;0.40;;;;;;;14.73;73.48;101260.13;5050487;28;20041;-70
2023/08/23 02:08:22;;;;;;;1.75;0.50;;;;;;;14.73;73.41;101260.97;5049945;28;20044;-70
2023/08/23 02:10:49;;;;;;;2.55;0.60;;;;;;;14.72;73.41;101259.28;5045051;28;20049;-70
2023/08/23 02:13:16;;;;;;;1.80;0.40;;;;;;;14.72;73.45;101255.78;5047712;28;20041;-71
2023/08/23 02:15:45;;;;;;;5.28;0.60;;;;;;;14.70;73.39;101260.22;5052140;28;20056;-70
2023/08/23 02:18:12;;;;;;;3.92;0.70;;;;;;;14.70;73.56;101255.81;5048279;28;20071;-70
2023/08/23 02:20:39;;;;;;;4.40;0.93;;;;;;;14.70;73.48;101260.22;5052648;28;20045;-70
2023/08/23 02:23:06;;;;;;;6.63;0.50;;;;;;;14.68;73.34;101254.13;5054692;28;20071;-70
2023/08/23 02:25:33;;;;;;;1.23;0.70;;;;;;;14.68;73.39;101254.13;5053736;28;20049;-70
2023/08/23 02:28:00;;;;;;;3.22;0.50;;;;;;;14.67;73.49;101255.03;5055357;28;20048;-71
2023/08/23 02:30:26;;;;;;;3.63;0.43;;;;;;;14.65;73.32;101260.31;5051089;28;20048;-70
2023/08/23 02:32:55;;;;;;;1.42;0.80;;;;;;;14.65;73.43;101254.22;5058309;28;20055;-70
2023/08/23 02:35:22;;;;;;;1.27;0.73;;;;;;;14.62;73.36;101256.00;5055964;28;20096;-70
2023/08/23 02:37:48;;;;;;;3.80;0.57;;;;;;;14.61;73.25;101264.81;5054731;28;20037;-70
2023/08/23 02:40:15;;;;;;;1.83;0.40;;;;;;;14.60;73.39;101265.72;5058484;28;20434;-69
2023/08/23 02:42:42;;;;;;;1.73;0.47;;;;;;;14.59;73.39;101260.50;5056759;28;20068;-69
2023/08/23 02:45:09;;;;;;;2.88;0.50;;;;;;;14.57;73.32;101263.19;5053540;28;20057;-69
2023/08/23 02:47:36;;;;;;;2.45;0.50;;;;;;;14.55;73.15;101267.63;5054718;28;20499;-69
2023/08/23 02:50:05;;;;;;;3.30;0.50;;;;;;;14.54;73.14;101270.28;5056959;28;20055;-69
2023/08/23 02:52:33;;;;;;;1.02;0.40;;;;;;;14.52;73.41;101270.34;5053656;28;20049;-75
2023/08/23 02:55:00;;;;;;;4.53;0.75;;;;;;;14.51;72.93;101265.94;5052846;28;20482;-75
2023/08/23 02:57:27;;;;;;;1.95;0.40;;;;;;;14.45;73.01;101257.34;5053943;28;20063;-75
2023/08/23 02:59:54;;;;;;;2.55;0.70;;;;;;;14.46;73.08;101257.31;5053592;28;20056;-77
2023/08/23 03:02:21;;;;;;;1.45;1.05;;;;;;;14.46;73.25;101264.31;5057440;28;20051;-76
2023/08/23 03:04:47;;;;;;;0.88;0.40;;;;;;;14.43;73.22;101254.78;5054554;28;20063;-76
2023/08/23 03:07:16;;;;;;;2.15;0.40;;;;;;;14.43;73.11;101259.16;5056041;28;20055;-75
2023/08/23 03:09:43;;;;;;;1.58;0.60;;;;;;;14.42;73.42;101254.81;5031913;28;20063;-76
2023/08/23 03:12:09;;;;;;;1.95;0.57;;;;;;;14.40;73.44;101257.50;5054159;28;20049;-76
2023/08/23 03:14:36;;;;;;;2.17;0.60;;;;;;;14.39;73.56;101251.34;5051330;28;20060;-76
2023/08/23 03:17:03;;;;;;;2.80;0.45;;;;;;;14.38;73.53;101259.28;5055510;28;20056;-76
2023/08/23 03:19:30;;;;;;;1.77;0.50;;;;;;;14.37;73.44;101261.06;5053796;28;20041;-76
2023/08/23 03:21:57;;;;;;;2.03;0.70;;;;;;;14.35;73.62;101262.00;5049506;28;20041;-76
2023/08/23 03:24:25;;;;;;;1.70;0.60;;;;;;;14.36;73.47;101263.72;5057483;28;20048;-76
2023/08/23 03:26:52;;;;;;;2.25;0.40;;;;;;;14.36;73.64;101263.72;5053738;28;20525;-76
2023/08/23 03:29:19;;;;;;;5.00;0.85;;;;;;;14.34;73.73;101270.78;5055654;28;20055;-76
2023/08/23 03:31:46;;;;;;;7.85;0.68;;;;;;;14.33;73.57;101259.41;5050373;28;20068;-76
2023/08/23 03:34:13;;;;;;;4.75;0.57;;;;;;;14.32;73.47;101268.19;5054772;28;20110;-76
2023/08/23 03:36:40;;;;;;;2.53;0.70;;;;;;;14.31;73.54;101270.84;5051533;28;20047;-75
2023/08/23 03:39:07;;;;;;;1.13;0.40;;;;;;;14.30;73.53;101275.25;5055896;28;20052;-76
2023/08/23 03:41:35;;;;;;;5.57;0.60;;;;;;;14.27;73.61;101271.84;5055495;28;20098;-77
2023/08/23 03:44:02;;;;;;;1.70;0.60;;;;;;;14.25;73.35;101265.75;5051361;28;20048;-76
2023/08/23 03:46:29;;;;;;;1.60;0.50;;;;;;;14.25;73.57;101271.88;5056296;28;20045;-76
2023/08/23 03:48:56;;;;;;;2.47;0.70;;;;;;;14.23;73.46;101273.69;5051312;28;20079;-76
2023/08/23 03:51:22;;;;;;;2.78;0.60;;;;;;;14.23;73.76;101273.69;5056166;28;20052;-76
2023/08/23 03:53:50;;;;;;;2.05;0.50;;;;;;;14.22;73.68;101276.34;5055079;28;20063;-76
2023/08/23 03:56:17;;;;;;;1.23;0.50;;;;;;;14.22;73.91;101271.09;5056655;28;20048;-76
2023/08/23 03:58:45;;;;;;;1.67;0.60;;;;;;;14.22;74.02;101273.72;5054117;28;20053;-76
2023/08/23 04:01:12;;;;;;;4.15;0.70;;;;;;;14.21;74.01;101277.28;5051387;28;20474;-69
2023/08/23 04:03:39;;;;;;;7.68;0.93;;;;;;;14.20;74.04;101270.25;5053597;28;20510;-69
2023/08/23 04:06:06;;;;;;;5.10;0.90;;;;;;;14.21;74.23;101266.75;5049897;28;20044;-69
2023/08/23 04:08:33;;;;;;;3.92;0.55;;;;;;;14.20;74.27;101267.63;5053361;28;20495;-69
2023/08/23 04:11:00;;;;;;;2.70;0.85;;;;;;;14.18;74.42;101265.94;5048125;28;20049;-69
2023/08/23 04:13:26;;;;;;;3.83;0.88;;;;;;;14.20;74.47;101267.63;5052447;28;20068;-68
2023/08/23 04:15:55;;;;;;;3.85;0.73;;;;;;;14.20;74.68;101268.50;5052961;28;20430;-69
2023/08/23 04:18:22;;;;;;;1.95;0.80;;;;;;;14.21;74.66;101272.00;5054012;28;20048;-68
2023/08/23 04:20:58;;;;;;;4.50;1.00;;;;;;;14.20;74.85;101271.13;5051685;28;20518;-76
2023/08/23 04:23:25;;;;;;;2.10;0.80;;;;;;;14.20;75.18;101270.25;5053919;28;20053;-76
2023/08/23 04:25:52;;;;;;;5.18;0.88;;;;;;;14.23;75.25;101267.56;5049301;28;20307;-77
2023/08/23 04:28:19;;;;;;;5.32;0.60;;;;;;;14.23;75.31;101267.56;5054370;28;20407;-76
2023/08/23 04:30:46;;;;;;;3.47;0.90;;;;;;;14.23;75.54;101267.56;5053705;28;20056;-75
2023/08/23 04:33:14;;;;;;;4.18;0.88;;;;;;;14.25;75.77;101271.00;5049418;28;20049;-75
2023/08/23 04:35:41;;;;;;;4.72;0.95;;;;;;;14.26;75.90;101263.09;5054353;28;20048;-75
2023/08/23 04:38:10;;;;;;;5.57;0.98;;;;;;;14.28;76.11;101273.56;5054197;28;20044;-76
2023/08/23 04:40:37;;;;;;;1.77;0.93;;;;;;;14.30;76.23;101263.88;5051296;28;20047;-75
2023/08/23 04:43:05;;;;;;;4.65;1.10;;;;;;;14.31;76.46;101265.59;5049194;28;20515;-76
2023/08/23 04:45:31;;;;;;;3.00;1.02;;;;;;;14.30;76.79;101258.63;5056470;28;20057;-76
2023/08/23 04:47:58;;;;;;;4.40;1.20;;;;;;;14.33;76.70;101269.06;5054514;28;20049;-75
2023/08/23 04:50:27;;;;;;;8.23;1.73;;;;;;;14.36;76.88;101268.97;5051442;28;20056;-76
2023/08/23 04:52:53;;;;;;;5.45;1.77;;;;;;;14.37;77.24;101268.94;5053163;28;20054;-76
2023/08/23 04:55:20;;;;;;;5.03;1.40;;;;;;;14.37;77.14;101261.06;5050163;28;20069;-75
2023/08/23 04:57:47;;;;;;;5.47;1.15;;;;;;;14.41;77.39;101264.47;5055284;28;20163;-75
2023/08/23 05:00:15;;;;;;;5.45;1.50;;;;;;;14.45;77.64;101265.25;5054204;28;20045;-70
2023/08/23 05:02:42;;;;;;;4.53;1.63;;;;;;;14.45;77.69;101260.84;5053331;28;20048;-71
2023/08/23 05:05:09;;;;;;;7.47;1.10;;;;;;;14.49;77.92;101265.13;5053736;28;20052;-72
2023/08/23 05:07:38;;;;;;;7.22;1.20;;;;;;;14.51;78.18;101257.19;5055052;28;20040;-71
2023/08/23 05:10:06;;;;;;;9.40;2.70;;;;;;;14.56;78.32;101265.84;5051514;28;20041;-71
2023/08/23 05:12:33;;;;;;;2.72;1.65;;;;;;;14.59;78.35;101274.50;5051980;28;20048;-77
2023/08/23 05:15:00;;;;;;;8.23;1.48;;;;;;;14.62;78.45;101274.41;5051979;28;20045;-77
2023/08/23 05:17:27;;;;;;;8.38;1.40;;;;;;;14.67;78.69;101274.31;5050940;28;20419;-76
2023/08/23 05:19:54;;;;;;;4.90;1.92;;;;;;;14.67;78.87;101269.06;5042081;28;20051;-76
2023/08/23 05:22:21;;;;;;;5.68;1.70;;;;;;;14.74;78.85;101275.00;5051838;28;20049;-72
2023/08/23 05:24:49;;;;;;;8.85;1.95;;;;;;;14.78;79.14;101274.00;5048930;28;20059;-72
2023/08/23 05:27:16;;;;;;;6.40;1.80;;;;;;;14.81;79.08;101273.94;5051444;28;20052;-72
2023/08/23 05:29:44;;;;;;;7.90;1.52;;;;;;;14.86;79.16;101269.41;5051312;28;20052;-72
2023/08/23 05:32:11;;;;;;;9.68;1.90;;;;;;;14.90;79.32;101275.44;5054126;28;20057;-73
2023/08/23 05:34:40;;;;;;;3.85;1.70;;;;;;;14.96;79.63;101278.75;5047502;28;20467;-72
2023/08/23 05:37:07;;;;;;;8.32;2.00;;;;;;;15.01;79.79;101276.84;5051008;28;20048;-72
2023/08/23 05:39:34;;;;;;;10.77;2.17;;;;;;;15.06;79.88;101280.22;5046792;28;20059;-72
2023/08/23 05:42:02;;;;;;;3.03;1.70;;;;;;;15.12;80.21;101276.53;5050947;28;20037;-73
2023/08/23 05:44:29;;;;;;;4.60;1.98;;;;;;;15.17;80.14;101279.03;5048876;28;20044;-73
2023/08/23 05:46:56;;;;;;;4.15;1.50;;;;;;;15.22;80.06;101282.38;5051812;28;20058;-73
2023/08/23 05:49:23;;;;;;;3.53;2.08;;;;;;;15.28;80.07;101282.19;5050230;28;20041;-72
2023/08/23 05:51:50;;;;;;;6.93;1.90;;;;;;;15.32;79.95;101283.84;5054935;28;20051;-73
2023/08/23 05:54:17;;;;;;;9.38;1.98;;;;;;;15.38;80.15;101288.06;5048183;28;20398;-73
2023/08/23 05:56:44;;;;;;;6.85;1.75;;;;;;;15.43;79.99;101289.66;5053998;28;20574;-73
2023/08/23 05:59:12;;;;;;;3.53;1.38;;;;;;;15.48;79.92;101289.50;5055328;28;20080;-73
2023/08/23 06:01:39;;;;;;;7.22;2.00;;;;;;;15.53;79.89;101284.94;5059297;28;20500;-74
2023/08/23 06:04:06;;;;;;;4.18;1.60;;;;;;;15.59;79.84;101291.81;5055089;28;20490;-74
2023/08/23 06:06:33;;;;;;;6.40;1.15;;;;;;;15.65;79.69;101286.34;5053803;28;20483;-74
2023/08/23 06:09:01;;;;;;;2.65;1.27;;;;;;;15.69;79.83;101293.28;5052573;28;20049;-75
2023/08/23 06:11:28;;;;;;;5.28;1.52;;;;;;;15.75;79.85;101298.34;5055863;28;20045;-74
2023/08/23 06:13:56;;;;;;;2.28;1.38;;;;;;;15.80;79.88;101290.31;5053009;28;20057;-74
2023/08/23 06:16:24;;;;;;;6.30;1.48;;;;;;;15.85;79.81;101299.78;5051411;28;20410;-73
2023/08/23 06:18:51;;;;;;;7.95;1.80;;;;;;;15.90;79.61;101299.63;5055572;28;20434;-74
2023/08/23 06:21:18;;;;;;;3.53;1.45;;;;;;;15.94;79.62;101293.38;5055970;28;20407;-71
2023/08/23 06:23:45;;;;;;;8.52;1.38;;;;;;;15.99;79.44;101288.78;5051710;28;20534;-71
2023/08/23 06:26:12;;;;;;;3.40;1.00;;;;;;;16.04;79.35;101299.19;5059019;28;20489;-71
2023/08/23 06:28:39;;;;;;;3.30;1.63;;;;;;;16.09;79.53;101297.28;5052806;28;20041;-71
2023/08/23 06:31:06;;;;;;;3.78;1.00;;;;;;;16.14;79.37;101292.72;5052059;28;20053;-74
2023/08/23 06:33:35;;;;;;;5.00;1.40;;;;;;;16.19;79.42;101296.91;5054340;28;20079;-73
2023/08/23 06:36:05;;;;;;;7.88;1.15;;;;;;;16.24;79.40;101299.38;5059064;28;20056;-76
2023/08/23 06:38:32;;;;;;;4.55;1.05;;;;;;;16.30;79.61;101304.44;5057482;28;20049;-74
2023/08/23 06:40:59;;;;;;;5.97;1.70;;;;;;;16.35;79.19;101307.78;5056460;28;20056;-74
2023/08/23 06:43:26;;;;;;;3.30;0.70;;;;;;;16.41;79.03;101309.34;5051164;28;20044;-73
2023/08/23 06:45:53;;;;;;;5.70;1.08;;;;;;;16.46;79.07;101310.06;5052241;28;20746;-73
2023/08/23 06:48:20;;;;;;;5.25;1.60;;;;;;;16.52;78.94;101312.50;5052490;28;20494;-73
2023/08/23 06:50:48;;;;;;;1.58;0.80;;;;;;;16.57;78.89;101310.56;5057741;28;20051;-74
2023/08/23 06:53:15;;;;;;;5.20;1.02;;;;;;;16.63;78.82;101309.47;5055089;28;20408;-74
2023/08/23 06:55:42;;;;;;;4.95;0.90;;;;;;;16.68;78.66;101307.56;5055034;28;20395;-73
2023/08/23 06:58:09;;;;;;;4.82;1.98;;;;;;;16.74;78.46;101307.31;5055404;28;20037;-73
2023/08/23 07:00:37;;;;;;;6.82;0.95;;;;;;;16.80;78.16;101306.28;5056578;28;20155;-73
2023/08/23 07:03:04;;;;;;;2.80;1.20;;;;;;;16.84;77.94;101303.47;5055204;28;20102;-73
2023/08/23 07:05:34;;;;;;;4.60;1.23;;;;;;;16.90;77.62;101302.38;5052157;28;20107;-73
2023/08/23 07:08:02;;;;;;;4.22;1.27;;;;;;;16.96;77.59;101302.19;5053184;28;20048;-73
2023/08/23 07:10:30;;;;;;;13.25;1.75;;;;;;;17.01;77.48;101304.63;5051988;28;20045;-74
2023/08/23 07:12:57;;;;;;;6.75;1.20;;;;;;;17.05;77.18;101307.09;5052709;28;20052;-74
2023/08/23 07:15:24;;;;;;;2.95;1.63;;;;;;;17.11;77.16;101306.03;5055569;28;20048;-74
2023/08/23 07:17:50;;;;;;;6.10;1.10;;;;;;;17.15;76.90;101307.63;5054834;28;20052;-74
2023/08/23 07:20:17;;;;;;;4.32;0.90;;;;;;;17.18;76.86;101302.22;5055486;28;20064;-74
2023/08/23 07:22:44;;;;;;;4.30;1.55;;;;;;;17.25;76.70;101308.16;5047991;28;20056;-73
2023/08/23 07:25:12;;;;;;;2.47;0.82;;;;;;;17.29;76.75;101305.31;5058445;28;20051;-74
2023/08/23 07:27:39;;;;;;;4.32;1.10;;;;;;;17.31;76.54;101297.34;5055211;28;20071;-73
2023/08/23 07:30:08;;;;;;;4.13;1.15;;;;;;;17.41;76.81;101318.97;5053576;28;20041;-70
2023/08/23 07:32:35;;;;;;;10.05;1.08;;;;;;;17.37;76.33;101306.81;5050006;28;20049;-71
2023/08/23 07:35:02;;;;;;;2.05;0.73;;;;;;;17.51;76.39;101323.00;5053236;28;20041;-72
2023/08/23 07:37:29;;;;;;;3.70;0.90;;;;;;;17.57;75.96;101319.25;5054885;28;20703;-72
2023/08/23 07:39:56;;;;;;;4.15;1.10;;;;;;;17.61;76.00;101316.41;5052532;28;20147;-72
2023/08/23 07:42:25;;;;;;;3.53;1.20;;;;;;;17.69;75.67;101313.47;5050141;28;20044;-75
2023/08/23 07:44:52;;;;;;;2.17;0.63;;;;;;;17.74;75.64;101322.94;5051822;28;20458;-75
2023/08/23 07:47:19;;;;;;;5.68;0.82;;;;;;;17.82;75.68;101320.03;5054143;28;20115;-75
2023/08/23 07:49:46;;;;;;;1.55;0.65;;;;;;;17.90;75.21;101322.34;5053661;28;20041;-75
2023/08/23 07:52:14;;;;;;;5.38;1.13;;;;;;;17.97;75.16;101315.91;5055826;28;20045;-75
2023/08/23 07:54:40;;;;;;;1.95;0.60;;;;;;;18.05;74.48;101323.53;5056534;28;20041;-75
2023/08/23 07:57:07;;;;;;;4.05;0.70;;;;;;;18.14;74.44;101315.22;5058501;28;20049;-75
2023/08/23 07:59:35;;;;;;;4.53;0.88;;;;;;;18.23;74.49;101320.13;5049837;28;20048;-75
2023/08/23 08:02:02;;;;;;;3.42;0.70;;;;;;;18.31;74.33;101312.72;5055387;28;20067;-75
2023/08/23 08:04:29;;;;;;;3.50;0.80;;;;;;;18.39;73.85;101321.22;5050403;28;20037;-75
2023/08/23 08:06:56;;;;;;;1.70;0.80;;;;;;;18.49;73.95;101319.03;5054431;28;20059;-75
2023/08/23 08:09:23;;;;;;;4.20;0.88;;;;;;;18.60;73.81;101321.22;5052725;28;20513;-75
2023/08/23 08:11:50;;;;;;;4.20;0.90;;;;;;;18.70;73.48;101321.66;5054903;28;20049;-75
2023/08/23 08:14:17;;;;;;;5.53;0.80;;;;;;;18.80;73.48;101318.59;5055308;28;20041;-74
2023/08/23 08:16:45;;;;;;;3.97;0.73;;;;;;;18.87;73.04;101311.25;5050625;28;20060;-75
2023/08/23 08:19:12;;;;;;;1.27;1.10;;;;;;;19.01;73.03;101329.13;5053605;28;20044;-74
2023/08/23 08:21:40;;;;;;;4.20;0.95;;;;;;;19.10;72.83;101324.31;5053839;28;20590;-75
2023/08/23 08:24:08;;;;;;;3.28;0.70;;;;;;;19.20;72.76;101319.44;5051850;28;20072;-75
2023/08/23 08:26:35;;;;;;;8.75;0.80;;;;;;;19.29;72.01;101324.31;5055936;28;20498;-78
2023/08/23 08:29:02;;;;;;;1.95;0.70;;;;;;;19.38;71.82;101325.69;5051364;28;20052;-74
2023/08/23 08:31:29;;;;;;;3.28;0.93;;;;;;;19.48;71.57;101331.41;5054672;28;20041;-76
2023/08/23 08:33:59;;;;;;;3.08;0.60;;;;;;;19.58;70.87;101330.06;5052782;28;20045;-76
2023/08/23 08:36:26;;;;;;;3.75;1.50;;;;;;;19.64;71.10;101329.78;5052758;28;20049;-76
2023/08/23 08:38:53;;;;;;;2.25;0.50;;;;;;;19.70;70.91;101323.34;5052958;28;20045;-75
2023/08/23 08:41:21;;;;;;;2.55;0.70;;;;;;;19.78;69.96;101323.84;5058490;28;20044;-72
2023/08/23 08:43:47;;;;;;;2.97;0.50;;;;;;;19.86;70.30;101324.31;5056388;28;20049;-72
2023/08/23 08:46:15;;;;;;;2.75;0.63;;;;;;;19.92;69.98;101334.63;5050576;28;20072;-72
2023/08/23 08:48:42;;;;;;;4.13;0.50;;;;;;;19.97;69.47;101334.41;5052894;28;20056;-72
2023/08/23 08:51:19;;;;;;;0.68;0.40;;;;;;;20.01;69.35;101330.69;5053448;28;20045;-76
2023/08/23 08:53:48;;;;;;;4.07;0.73;;;;;;;20.07;69.22;101332.16;5054075;28;20163;-77
2023/08/23 08:56:17;;;;;;;1.75;0.70;;;;;;;20.08;68.81;101329.44;5051637;28;20048;-75
2023/08/23 08:58:45;;;;;;;4.97;0.60;;;;;;;19.96;69.08;101307.03;5061837;28;20044;-84
2023/08/23 09:01:14;;;;;;;2.65;0.50;;;;;;;20.20;68.84;101338.56;5062125;28;20048;-83
2023/08/23 09:03:41;;;;;;;2.55;0.50;;;;;;;20.23;68.80;101335.75;5059483;28;20045;-85
2023/08/23 09:06:10;;;;;;;1.55;0.40;;;;;;;20.26;68.61;101335.59;5051292;28;20083;-82
2023/08/23 09:08:37;;;;;;;3.50;0.65;;;;;;;20.30;68.45;101338.97;5057173;28;20059;-84
2023/08/23 09:11:04;;;;;;;3.05;0.50;;;;;;;20.35;68.25;101334.28;5061860;28;20047;-82
2023/08/23 09:13:31;;;;;;;3.70;0.45;;;;;;;20.37;68.06;101335.91;5058825;28;20041;-85
2023/08/23 09:15:59;;;;;;;2.92;0.63;;;;;;;20.44;67.84;101344.44;5058184;28;20044;-82
2023/08/23 09:18:26;;;;;;;1.38;0.52;;;;;;;20.49;67.62;101339.78;5061202;28;20079;-80
2023/08/23 09:20:54;;;;;;;7.65;0.40;;;;;;;20.55;67.52;101343.91;5054393;28;20400;-77
2023/08/23 09:23:23;;;;;;;0.75;0.45;;;;;;;20.59;67.27;101345.50;5052319;28;20857;-86
2023/08/23 09:25:50;;;;;;;0.90;0.40;;;;;;;20.61;67.37;101349.78;5052921;28;20415;-82
2023/08/23 09:28:17;;;;;;;5.03;0.70;;;;;;;20.64;67.13;101339.00;5061113;28;20055;-80
2023/08/23 09:30:48;;;;;;;4.10;0.50;;;;;;;20.69;66.91;101341.44;5057539;28;20045;-78
2023/08/23 09:33:15;;;;;;;1.13;0.30;;;;;;;20.64;66.73;101327.53;5056074;28;20057;-78
2023/08/23 09:35:48;;;;;;;4.53;0.50;;;;;;;20.77;66.23;101338.34;5054104;28;20056;-77
2023/08/23 09:38:19;;;;;;;1.08;0.40;;;;;;;20.84;66.09;101345.94;5054047;28;20044;-80
2023/08/23 09:40:48;;;;;;;3.88;0.50;;;;;;;20.85;66.16;101331.72;5055802;28;20111;-77
2023/08/23 09:43:16;;;;;;;1.65;0.45;;;;;;;20.88;65.96;101336.00;5053091;28;20090;-79
2023/08/23 09:45:44;;;;;;;4.88;0.40;;;;;;;20.96;65.79;101338.25;5055079;28;20635;-77
2023/08/23 09:48:12;;;;;;;1.17;0.45;;;;;;;21.00;65.55;101337.16;5049315;28;20045;-82
2023/08/23 09:50:39;;;;;;;2.95;0.60;;;;;;;21.04;65.92;101347.53;5052114;28;20089;-76
2023/08/23 09:53:07;;;;;;;2.53;0.40;;;;;;;21.06;65.68;101337.69;5061775;28;20041;-87
2023/08/23 09:55:35;;;;;;;1.00;0.50;;;;;;;21.12;65.31;101336.50;5060982;28;20055;-89
2023/08/23 09:58:04;;;;;;;1.52;0.50;;;;;;;21.14;65.37;101325.78;5057216;28;20425;-85
2023/08/23 10:00:31;;;;;;;3.05;0.50;;;;;;;21.17;65.00;101330.94;5054848;28;20051;-84
2023/08/23 10:02:58;;;;;;;4.60;0.73;;;;;;;21.22;64.74;101335.06;5055741;28;20057;-84
2023/08/23 10:05:26;;;;;;;1.33;0.50;;;;;;;21.25;65.02;101329.56;5057342;28;20561;-79
2023/08/23 10:07:54;;;;;;;4.35;0.85;;;;;;;21.22;64.65;101321.78;5053311;28;20470;-80
2023/08/23 10:10:21;;;;;;;2.60;0.40;;;;;;;21.31;64.46;101331.91;5053340;28;20545;-80
2023/08/23 10:12:52;;;;;;;1.92;0.40;;;;;;;21.35;64.41;101329.94;5061558;28;20140;-79
2023/08/23 10:15:27;;;;;;;3.78;0.40;;;;;;;21.36;64.06;101328.16;5052173;28;20044;-80
2023/08/23 10:17:54;;;;;;;;;;;;;;;21.40;64.70;101335.03;5056723;28;20055;-80
2023/08/23 10:20:24;;;;;;;1.88;0.50;;;;;;;21.40;64.07;101332.38;5052634;28;19920;-80
2023/08/23 10:22:54;;;;;;;2.42;0.40;;;;;;;21.42;64.33;101333.16;5054525;28;20044;-79
2023/08/23 10:25:22;;;;;;;5.07;0.50;;;;;;;21.39;64.41;101320.03;5058279;28;20106;-80
2023/08/23 10:27:50;;;;;;;5.55;0.47;;;;;;;21.43;63.98;101325.09;5061499;28;20048;-80
2023/08/23 10:30:24;;;;;;;2.45;0.63;;;;;;;21.47;64.14;101328.44;5055556;28;20045;-79
2023/08/23 10:32:51;;;;;;;2.72;0.50;;;;;;;21.49;64.14;101331.88;5057139;28;20155;-80
2023/08/23 10:35:29;;;;;;;2.05;0.40;;;;;;;21.50;64.17;101328.28;5054399;28;20440;-80
2023/08/23 10:37:58;;;;;;;5.47;0.52;;;;;;;21.50;63.22;101326.47;5057705;28;20621;-79
2023/08/23 10:40:28;;;;;;;2.67;0.50;;;;;;;21.50;63.51;101328.28;5052704;28;20463;-80
2023/08/23 10:42:55;;;;;;;1.63;0.40;;;;;;;21.50;63.20;101329.13;5060681;28;20395;-80
2023/08/23 10:45:23;;;;;;;2.63;0.40;;;;;;;21.51;63.33;101327.31;5070173;28;20049;-80
2023/08/23 10:47:51;;;;;;;1.70;0.40;;;;;;;21.31;63.40;101297.34;5062390;28;20058;-80
2023/08/23 10:50:18;;;;;;;3.72;0.50;;;;;;;21.52;63.30;101326.41;5057653;28;20049;-76
2023/08/23 10:52:45;;;;;;;2.53;1.05;;;;;;;21.51;63.45;101329.97;5058654;28;20052;-78
2023/08/23 10:55:12;;;;;;;10.38;1.80;;;;;;;21.51;63.27;101330.81;5060527;28;20045;-81
2023/08/23 10:57:39;;;;;;;1.30;0.40;;;;;;;21.51;63.15;101335.28;5052991;28;20048;-76
2023/08/23 11:00:08;;;;;;;1.50;0.35;;;;;;;21.53;63.15;101333.41;5056078;28;20060;-76
2023/08/23 11:02:36;;;;;;;4.40;0.47;;;;;;;21.53;63.17;101334.28;5058680;28;20041;-79
2023/08/23 11:05:04;;;;;;;2.80;0.60;;;;;;;21.54;62.73;101340.44;5055791;28;20055;-80
2023/08/23 11:07:32;;;;;;;1.75;0.50;;;;;;;21.54;62.05;101336.00;5052299;28;20045;-78
2023/08/23 11:09:59;;;;;;;2.20;0.60;;;;;;;21.53;62.79;101336.06;5058948;28;20049;-77
2023/08/23 11:12:25;;;;;;;2.10;0.57;;;;;;;21.54;62.76;101332.47;5060154;28;20045;-79
2023/08/23 11:14:52;;;;;;;4.97;0.88;;;;;;;21.55;62.56;101336.84;5053246;28;20426;-76
2023/08/23 11:17:20;;;;;;;1.63;0.40;;;;;;;21.53;62.34;101331.59;5059612;28;20392;-78
2023/08/23 11:19:48;;;;;;;3.70;0.50;;;;;;;21.44;62.19;101312.66;5056443;28;20745;-76
2023/08/23 11:22:17;;;;;;;5.88;0.65;;;;;;;21.52;62.13;101329.91;5055707;28;20402;-77
2023/08/23 11:24:44;;;;;;;3.20;0.50;;;;;;;21.49;62.62;101329.22;5058978;28;20124;-78
2023/08/23 11:27:15;;;;;;;4.00;0.60;;;;;;;21.52;61.63;101339.69;5060250;28;20041;-78